Time;durP1;ratioP1;P1;durP2;ratioP2;P2;SDS_P1;SDS_P2;PMS_P1;PMS_P2;Temp;Humidity;BMP_temperature;BMP_pressure;BME280_temperature;BME280_humidity;BME280_pressure;Samples;Min_cycle;Max_cycle;Signal;HPM_P1;HPM_P2
2023/03/06 00:00:53;;;;;;;4.85;1.70;;;3.30;99.90;;;;;;5049984;28;20044;-65
2023/03/06 00:03:19;;;;;;;4.47;1.25;;;2.60;99.90;;;;;;5066311;28;20048;-61
2023/03/06 00:05:45;;;;;;;4.32;1.55;;;3.40;99.90;;;;;;5048176;28;20036;-63
2023/03/06 00:08:11;;;;;;;6.10;1.60;;;2.60;99.90;;;;;;5067580;28;20384;-63
2023/03/06 00:10:37;;;;;;;5.05;1.50;;;3.40;99.90;;;;;;5065985;28;20331;-63
2023/03/06 00:13:06;;;;;;;3.78;1.35;;;3.20;99.90;;;;;;5066119;28;20233;-64
2023/03/06 00:15:32;;;;;;;3.38;1.50;;;3.20;99.90;;;;;;5066601;28;20052;-60
2023/03/06 00:17:58;;;;;;;2.45;1.00;;;2.60;99.90;;;;;;5066928;28;20048;-68
2023/03/06 00:20:25;;;;;;;3.03;0.75;;;3.40;99.90;;;;;;5064673;28;20040;-65
2023/03/06 00:22:51;;;;;;;3.55;1.00;;;4.00;99.90;;;;;;5065713;28;20148;-68
2023/03/06 00:25:19;;;;;;;3.38;0.75;;;2.70;99.90;;;;;;5066783;28;20072;-63
2023/03/06 00:27:45;;;;;;;3.03;1.00;;;3.10;99.90;;;;;;5065708;28;20040;-67
2023/03/06 00:30:14;;;;;;;3.13;1.08;;;3.00;99.90;;;;;;5066885;28;20032;-67
2023/03/06 00:32:40;;;;;;;2.40;0.90;;;2.50;99.90;;;;;;5066475;28;20076;-64
2023/03/06 00:35:06;;;;;;;3.38;1.00;;;3.00;99.90;;;;;;5046785;28;20123;-67
2023/03/06 00:37:32;;;;;;;3.35;0.95;;;2.80;99.90;;;;;;5065198;28;20124;-68
2023/03/06 00:39:58;;;;;;;2.35;0.98;;;3.20;99.90;;;;;;5047837;28;20102;-69
2023/03/06 00:42:24;;;;;;;2.17;0.65;;;2.90;99.90;;;;;;5064544;28;20048;-68
2023/03/06 00:44:49;;;;;;;1.65;0.70;;;2.70;99.90;;;;;;5067605;28;20039;-66
2023/03/06 00:47:18;;;;;;;1.65;0.50;;;1.70;99.90;;;;;;5074501;28;20506;-69
2023/03/06 00:49:44;;;;;;;2.03;0.63;;;2.50;99.90;;;;;;5065356;28;20123;-65
2023/03/06 00:52:10;;;;;;;1.77;0.60;;;2.00;99.90;;;;;;5064653;28;20131;-64
2023/03/06 00:54:36;;;;;;;2.20;0.73;;;2.20;99.90;;;;;;5066093;28;20037;-61
2023/03/06 00:57:01;;;;;;;2.95;0.70;;;1.90;99.90;;;;;;5065810;28;20436;-63
2023/03/06 00:59:27;;;;;;;2.22;0.70;;;2.00;99.90;;;;;;5066075;28;20044;-65
2023/03/06 01:01:53;;;;;;;2.67;0.82;;;1.00;99.90;;;;;;5065020;28;20047;-64
2023/03/06 01:04:19;;;;;;;2.53;1.00;;;1.80;99.90;;;;;;5065766;28;20412;-65
2023/03/06 01:06:45;;;;;;;3.03;1.05;;;1.50;99.90;;;;;;5065229;28;20037;-64
2023/03/06 01:09:11;;;;;;;2.47;0.82;;;1.90;99.90;;;;;;5065306;28;20056;-66
2023/03/06 01:11:36;;;;;;;2.92;0.80;;;1.90;99.90;;;;;;5065328;28;20049;-65
2023/03/06 01:14:02;;;;;;;1.48;0.82;;;1.40;99.90;;;;;;5066009;28;20780;-61
2023/03/06 01:16:28;;;;;;;1.73;0.90;;;1.90;99.90;;;;;;5065440;28;20767;-63
2023/03/06 01:18:53;;;;;;;3.63;1.38;;;2.90;99.90;;;;;;5064958;28;20697;-65
2023/03/06 01:21:19;;;;;;;2.25;1.10;;;1.00;99.90;;;;;;5046176;28;20127;-67
2023/03/06 01:23:46;;;;;;;1.58;0.90;;;1.10;99.90;;;;;;5065347;28;20088;-67
2023/03/06 01:26:12;;;;;;;2.97;1.05;;;1.80;99.90;;;;;;5065210;28;20076;-65
2023/03/06 01:28:39;;;;;;;2.47;1.02;;;1.90;99.90;;;;;;5065208;28;20041;-65
2023/03/06 01:31:06;;;;;;;2.83;1.20;;;1.80;99.90;;;;;;5047076;28;20056;-60
2023/03/06 01:33:32;;;;;;;2.63;1.10;;;1.90;99.90;;;;;;5064971;28;20045;-68
2023/03/06 01:35:58;;;;;;;2.08;0.85;;;1.70;99.90;;;;;;5067944;28;20391;-67
2023/03/06 01:38:23;;;;;;;2.95;1.00;;;1.70;99.90;;;;;;5085585;28;20040;-68
2023/03/06 01:40:49;;;;;;;2.38;1.10;;;1.00;99.90;;;;;;5084869;28;20116;-68
2023/03/06 01:43:26;;;;;;;2.05;0.93;;;1.00;99.90;;;;;;5084801;28;20059;-68
2023/03/06 01:46:17;;;;;;;1.63;1.00;;;1.30;99.90;;;;;;5078514;28;20131;-66
2023/03/06 01:48:44;;;;;;;1.90;1.05;;;1.80;99.90;;;;;;5064901;28;20051;-67
2023/03/06 01:51:11;;;;;;;1.83;0.93;;;1.70;99.90;;;;;;5072590;28;20039;-71
2023/03/06 01:53:37;;;;;;;1.80;1.10;;;1.90;99.90;;;;;;5084837;28;20040;-67
2023/03/06 01:56:04;;;;;;;2.60;1.10;;;1.40;99.90;;;;;;5084459;28;20086;-67
2023/03/06 01:58:30;;;;;;;1.92;1.15;;;1.70;99.90;;;;;;5084891;28;20051;-61
2023/03/06 02:00:55;;;;;;;2.08;1.00;;;1.60;99.90;;;;;;5085139;28;20052;-68
2023/03/06 02:03:24;;;;;;;2.58;1.30;;;1.80;99.90;;;;;;5084261;28;20051;-64
2023/03/06 02:05:50;;;;;;;1.52;1.10;;;1.50;99.90;;;;;;5083788;28;20036;-63
2023/03/06 02:08:19;;;;;;;2.08;1.33;;;1.80;99.90;;;;;;5067004;28;20059;-67
2023/03/06 02:11:05;;;;;;;2.25;1.00;;;1.70;99.90;;;;;;5065707;28;20105;-68
2023/03/06 02:13:31;;;;;;;1.58;1.00;;;0.90;99.90;;;;;;5066518;28;20456;-68
2023/03/06 02:15:58;;;;;;;1.98;1.17;;;1.70;99.90;;;;;;5084522;28;20036;-69
2023/03/06 02:18:24;;;;;;;1.67;0.95;;;1.80;99.90;;;;;;5083915;28;20380;-64
2023/03/06 02:20:57;;;;;;;2.10;0.90;;;1.10;99.90;;;;;;5083686;28;20051;-63
2023/03/06 02:23:30;;;;;;;1.80;0.93;;;1.70;99.90;;;;;;5084203;28;20067;-70
2023/03/06 02:25:57;;;;;;;1.95;1.00;;;1.40;99.90;;;;;;5084564;28;20342;-67
2023/03/06 02:28:23;;;;;;;2.38;1.30;;;1.10;99.90;;;;;;5084644;28;20700;-67
2023/03/06 02:30:52;;;;;;;2.22;1.45;;;1.40;99.90;;;;;;5084897;28;20394;-65
2023/03/06 02:33:21;;;;;;;2.17;1.50;;;1.70;99.90;;;;;;5083304;28;20177;-67
2023/03/06 02:35:53;;;;;;;2.67;1.90;;;1.70;99.90;;;;;;5065734;28;20108;-70
2023/03/06 02:38:22;;;;;;;3.00;2.05;;;1.50;99.90;;;;;;5084592;28;20390;-63
2023/03/06 02:40:50;;;;;;;3.75;2.13;;;1.20;99.90;;;;;;5084711;28;20059;-61
2023/03/06 02:43:19;;;;;;;3.33;2.10;;;0.90;99.90;;;;;;5083873;28;20048;-68
2023/03/06 02:45:47;;;;;;;2.50;1.60;;;1.60;99.90;;;;;;5077403;28;20040;-70
2023/03/06 02:48:15;;;;;;;2.55;1.75;;;1.50;99.90;;;;;;5067272;28;20517;-70
2023/03/06 02:50:42;;;;;;;2.97;1.73;;;1.80;99.90;;;;;;5063232;28;20387;-69
2023/03/06 02:53:09;;;;;;;2.40;1.70;;;0.90;99.90;;;;;;5046042;28;20403;-67
2023/03/06 02:55:35;;;;;;;2.40;1.65;;;1.60;99.90;;;;;;5063456;28;20029;-61
2023/03/06 02:58:02;;;;;;;3.42;1.60;;;1.60;99.90;;;;;;5064279;28;20036;-65
2023/03/06 03:00:28;;;;;;;3.08;1.30;;;1.60;99.90;;;;;;5063802;28;20044;-65
2023/03/06 03:02:54;;;;;;;3.47;1.50;;;1.20;99.90;;;;;;5063541;28;20049;-65
2023/03/06 03:05:19;;;;;;;2.45;1.40;;;0.70;99.90;;;;;;5063457;28;20052;-65
2023/03/06 03:07:45;;;;;;;4.05;1.40;;;1.30;99.90;;;;;;5063709;28;20125;-63
2023/03/06 03:10:11;;;;;;;2.40;1.25;;;1.60;99.90;;;;;;5045213;28;20049;-65
2023/03/06 03:12:37;;;;;;;2.53;1.17;;;1.60;99.90;;;;;;5063840;28;20562;-65
2023/03/06 03:15:03;;;;;;;2.22;0.80;;;2.50;99.90;;;;;;5063770;28;20734;-67
2023/03/06 03:17:29;;;;;;;2.03;0.80;;;1.10;99.90;;;;;;5063559;28;20052;-65
2023/03/06 03:19:55;;;;;;;3.50;1.10;;;0.80;99.90;;;;;;5062078;28;20044;-63
2023/03/06 03:22:20;;;;;;;2.42;0.70;;;1.10;99.90;;;;;;5063378;28;20469;-67
2023/03/06 03:24:46;;;;;;;1.35;0.80;;;1.20;99.90;;;;;;5063406;28;20040;-65
2023/03/06 03:27:13;;;;;;;2.13;0.95;;;0.70;99.90;;;;;;5062684;28;20036;-69
2023/03/06 03:29:39;;;;;;;1.67;0.80;;;1.40;99.90;;;;;;5063133;28;20551;-67
2023/03/06 03:32:05;;;;;;;2.38;0.70;;;0.90;99.90;;;;;;5063257;28;20079;-71
2023/03/06 03:34:31;;;;;;;2.10;0.90;;;1.60;99.90;;;;;;5062449;28;20040;-67
2023/03/06 03:36:57;;;;;;;2.63;0.75;;;1.50;99.90;;;;;;5063161;28;20051;-66
2023/03/06 03:39:22;;;;;;;1.83;0.70;;;0.70;99.90;;;;;;5063791;28;20037;-69
2023/03/06 03:41:48;;;;;;;2.03;0.60;;;0.80;99.90;;;;;;5063099;28;20592;-66
2023/03/06 03:44:14;;;;;;;1.67;1.00;;;1.50;99.90;;;;;;5064626;28;21181;-67
2023/03/06 03:46:39;;;;;;;1.17;0.70;;;1.20;99.90;;;;;;5078303;28;20494;-65
2023/03/06 03:49:05;;;;;;;2.38;0.80;;;0.60;99.90;;;;;;5067484;28;20036;-69
2023/03/06 03:51:31;;;;;;;2.53;0.90;;;0.40;99.90;;;;;;5048244;28;20074;-68
2023/03/06 03:53:57;;;;;;;2.53;1.10;;;1.30;99.90;;;;;;5066934;28;20162;-69
2023/03/06 03:56:24;;;;;;;2.30;1.17;;;0.60;99.90;;;;;;5067260;28;20387;-66
2023/03/06 03:58:50;;;;;;;3.45;1.10;;;0.40;99.90;;;;;;5066953;28;20083;-64
2023/03/06 04:01:16;;;;;;;2.28;1.13;;;1.00;99.90;;;;;;5066039;28;20051;-65
2023/03/06 04:03:41;;;;;;;1.88;1.10;;;1.20;99.90;;;;;;5067007;28;20340;-70
2023/03/06 04:06:07;;;;;;;3.10;1.20;;;0.60;99.90;;;;;;5065519;28;20037;-63
2023/03/06 04:08:33;;;;;;;3.33;1.30;;;0.20;99.90;;;;;;5048394;28;20044;-68
2023/03/06 04:10:59;;;;;;;3.80;1.40;;;1.00;99.90;;;;;;5066136;28;20522;-66
2023/03/06 04:13:25;;;;;;;4.50;1.40;;;1.90;99.90;;;;;;5066600;28;20071;-65
2023/03/06 04:15:51;;;;;;;3.03;1.20;;;1.20;99.90;;;;;;5066402;28;20128;-68
2023/03/06 04:18:18;;;;;;;3.58;1.70;;;1.20;99.90;;;;;;5047969;28;20069;-67
2023/03/06 04:20:45;;;;;;;3.80;1.70;;;1.20;99.90;;;;;;5065750;28;20123;-69
2023/03/06 04:23:12;;;;;;;3.53;1.60;;;2.70;99.90;;;;;;5047921;28;20106;-67
2023/03/06 04:25:38;;;;;;;3.70;1.90;;;1.20;99.90;;;;;;5065937;28;20052;-65
2023/03/06 04:28:05;;;;;;;5.05;1.77;;;0.70;99.90;;;;;;5048149;28;20613;-65
2023/03/06 04:30:31;;;;;;;5.65;1.70;;;0.90;99.90;;;;;;5048162;28;20106;-70
2023/03/06 04:32:57;;;;;;;5.45;1.88;;;0.30;99.90;;;;;;5066656;28;20508;-71
2023/03/06 04:35:23;;;;;;;3.50;1.67;;;0.60;99.90;;;;;;5065038;28;20128;-71
2023/03/06 04:37:48;;;;;;;3.65;1.60;;;1.20;99.90;;;;;;5065858;28;20530;-68
2023/03/06 04:40:20;;;;;;;2.72;1.48;;;1.40;99.90;;;;;;5066139;28;20052;-64
2023/03/06 04:42:47;;;;;;;3.38;1.70;;;1.20;99.90;;;;;;5065216;28;20091;-67
2023/03/06 04:45:13;;;;;;;3.75;1.50;;;2.00;99.90;;;;;;5068667;28;20084;-63
2023/03/06 04:47:39;;;;;;;2.97;1.65;;;0.70;99.90;;;;;;5073971;28;20052;-63
2023/03/06 04:50:05;;;;;;;4.30;1.63;;;1.20;99.90;;;;;;5064184;28;20040;-71
2023/03/06 04:52:31;;;;;;;4.20;1.50;;;0.90;99.90;;;;;;5047480;28;20041;-68
2023/03/06 04:54:57;;;;;;;3.42;1.60;;;0.60;99.90;;;;;;5064835;28;20075;-66
2023/03/06 04:57:23;;;;;;;3.90;1.30;;;0.20;99.90;;;;;;5065529;28;20056;-64
2023/03/06 04:59:49;;;;;;;4.10;1.38;;;0.60;99.90;;;;;;5046364;28;20135;-69
2023/03/06 05:02:16;;;;;;;3.67;1.60;;;0.40;99.90;;;;;;5064893;28;20056;-70
2023/03/06 05:04:42;;;;;;;2.90;1.50;;;1.30;99.90;;;;;;5064151;28;20052;-71
2023/03/06 05:07:08;;;;;;;3.83;1.73;;;1.30;99.90;;;;;;5064305;28;20079;-66
2023/03/06 05:09:34;;;;;;;3.42;1.60;;;1.00;99.90;;;;;;5065009;28;20041;-65
2023/03/06 05:12:00;;;;;;;4.97;1.80;;;0.30;99.90;;;;;;5064742;28;20115;-63
2023/03/06 05:14:28;;;;;;;3.83;1.98;;;0.70;99.90;;;;;;5064554;28;20452;-63
2023/03/06 05:16:54;;;;;;;4.38;1.90;;;0.50;99.90;;;;;;5064392;28;20048;-71
2023/03/06 05:19:19;;;;;;;4.53;1.80;;;0.20;99.90;;;;;;5063610;28;20554;-63
2023/03/06 05:21:45;;;;;;;5.18;1.80;;;1.20;99.90;;;;;;5064327;28;20047;-69
2023/03/06 05:24:10;;;;;;;3.35;1.70;;;1.20;99.90;;;;;;5063598;28;20052;-66
2023/03/06 05:26:36;;;;;;;4.25;2.03;;;1.20;99.90;;;;;;5064356;28;20040;-71
2023/03/06 05:29:02;;;;;;;3.40;1.88;;;0.10;99.90;;;;;;5046273;28;20116;-69
2023/03/06 05:31:28;;;;;;;5.40;2.30;;;1.10;99.90;;;;;;5063864;28;20044;-71
2023/03/06 05:33:53;;;;;;;4.57;2.13;;;2.20;99.90;;;;;;5064592;28;20201;-69
2023/03/06 05:36:19;;;;;;;5.45;2.70;;;0.30;99.90;;;;;;5063657;28;20040;-67
2023/03/06 05:38:44;;;;;;;4.85;2.60;;;1.20;99.90;;;;;;5064228;28;20041;-68
2023/03/06 05:41:11;;;;;;;4.93;2.35;;;0.50;99.90;;;;;;5063856;28;20094;-72
2023/03/06 05:43:37;;;;;;;6.38;2.28;;;0.90;99.90;;;;;;5064869;28;20055;-72
2023/03/06 05:46:04;;;;;;;5.30;2.38;;;0.30;99.90;;;;;;5074901;28;20522;-65
2023/03/06 05:48:33;;;;;;;6.18;2.40;;;0.90;99.90;;;;;;5065788;28;20045;-62
2023/03/06 05:51:00;;;;;;;4.63;2.50;;;0.00;99.90;;;;;;5064281;28;20472;-65
2023/03/06 05:53:28;;;;;;;4.72;2.33;;;1.00;99.90;;;;;;5064593;28;20403;-66
2023/03/06 05:56:07;;;;;;;3.63;1.95;;;1.30;99.90;;;;;;5045905;28;20071;-69
2023/03/06 05:58:33;;;;;;;6.03;2.72;;;0.90;99.90;;;;;;5064394;28;20052;-67
2023/03/06 06:00:59;;;;;;;6.07;2.63;;;0.30;99.90;;;;;;5064329;28;20049;-71
2023/03/06 06:03:25;;;;;;;5.93;2.67;;;0.00;99.90;;;;;;5063972;28;20051;-63
2023/03/06 06:05:51;;;;;;;6.32;3.15;;;1.00;99.90;;;;;;5063837;28;20503;-65
2023/03/06 06:08:17;;;;;;;5.10;2.47;;;0.90;99.90;;;;;;5063318;28;20048;-70
2023/03/06 06:10:43;;;;;;;5.07;2.85;;;1.00;99.90;;;;;;5063746;28;20045;-62
2023/03/06 06:13:10;;;;;;;5.15;3.08;;;0.10;99.90;;;;;;5064275;28;20156;-69
2023/03/06 06:15:37;;;;;;;4.53;2.53;;;0.40;99.90;;;;;;5064256;28;20048;-68
2023/03/06 06:18:03;;;;;;;5.05;3.10;;;0.10;99.90;;;;;;5064543;28;20056;-68
2023/03/06 06:20:28;;;;;;;5.95;2.95;;;0.20;99.90;;;;;;5062680;28;20044;-67
2023/03/06 06:22:55;;;;;;;6.10;3.38;;;0.60;99.90;;;;;;5063486;28;20106;-71
2023/03/06 06:25:21;;;;;;;5.45;3.30;;;-0.10;99.90;;;;;;5063966;28;20080;-71
2023/03/06 06:27:46;;;;;;;6.80;3.80;;;-0.20;99.90;;;;;;5063162;28;20490;-67
2023/03/06 06:30:12;;;;;;;6.22;3.58;;;-0.20;99.90;;;;;;5063695;28;20144;-69
2023/03/06 06:32:38;;;;;;;6.03;3.42;;;-0.10;99.90;;;;;;5063801;28;20055;-63
2023/03/06 06:35:04;;;;;;;7.15;3.60;;;0.90;99.90;;;;;;5063564;28;20124;-70
2023/03/06 06:37:30;;;;;;;7.40;3.55;;;-0.20;99.90;;;;;;5044968;28;20056;-69
2023/03/06 06:39:56;;;;;;;6.65;3.70;;;0.80;99.90;;;;;;5045404;28;20093;-69
2023/03/06 06:42:22;;;;;;;6.53;4.53;;;-0.10;99.90;;;;;;5063438;28;20044;-65
2023/03/06 06:44:47;;;;;;;8.98;4.97;;;0.80;99.90;;;;;;5065461;28;20047;-69
2023/03/06 06:47:13;;;;;;;9.82;4.63;;;-0.20;99.90;;;;;;5072789;28;20037;-71
2023/03/06 06:49:39;;;;;;;7.45;4.78;;;0.80;99.90;;;;;;5062631;28;20137;-71
2023/03/06 06:52:05;;;;;;;11.18;4.85;;;0.50;99.90;;;;;;5063920;28;20039;-66
2023/03/06 06:54:32;;;;;;;11.35;5.53;;;0.00;99.90;;;;;;5063747;28;20036;-66
2023/03/06 06:56:58;;;;;;;12.15;5.70;;;-0.10;99.90;;;;;;5063944;28;20068;-67
2023/03/06 06:59:24;;;;;;;9.02;5.70;;;0.90;99.90;;;;;;5064040;28;20082;-65
2023/03/06 07:01:50;;;;;;;12.00;5.72;;;0.70;99.90;;;;;;5063290;28;20503;-71
2023/03/06 07:04:16;;;;;;;11.00;6.05;;;0.60;99.90;;;;;;5062843;28;20135;-67
2023/03/06 07:06:43;;;;;;;9.45;6.13;;;0.60;99.90;;;;;;5063594;28;20124;-66
2023/03/06 07:09:09;;;;;;;13.30;6.50;;;0.70;99.90;;;;;;5063047;28;20044;-65
2023/03/06 07:11:37;;;;;;;10.65;6.13;;;1.30;99.90;;;;;;5064459;28;20040;-70
2023/03/06 07:14:02;;;;;;;12.30;6.88;;;0.90;99.90;;;;;;5064071;28;20044;-70
2023/03/06 07:16:28;;;;;;;12.77;7.13;;;0.30;99.90;;;;;;5063644;28;20044;-60
2023/03/06 07:18:53;;;;;;;10.95;6.97;;;-0.10;99.90;;;;;;5063418;28;20040;-65
2023/03/06 07:21:19;;;;;;;12.80;7.15;;;0.50;99.90;;;;;;5067473;28;20048;-66
2023/03/06 07:23:45;;;;;;;11.43;7.05;;;0.90;99.90;;;;;;5067471;28;20051;-68
2023/03/06 07:26:11;;;;;;;21.52;7.63;;;0.00;99.90;;;;;;5066721;28;20040;-70
2023/03/06 07:28:36;;;;;;;11.63;7.30;;;0.40;99.90;;;;;;5067379;28;20832;-72
2023/03/06 07:31:08;;;;;;;12.13;7.75;;;1.00;99.90;;;;;;5049142;28;20412;-69
2023/03/06 07:33:34;;;;;;;11.25;7.05;;;0.00;99.90;;;;;;5067164;28;20056;-63
2023/03/06 07:35:59;;;;;;;9.07;6.45;;;1.00;99.90;;;;;;5048372;28;20036;-63
2023/03/06 07:38:25;;;;;;;11.65;6.57;;;1.30;99.90;;;;;;5066522;28;20040;-67
2023/03/06 07:40:51;;;;;;;15.48;7.18;;;1.40;99.90;;;;;;5066747;28;20403;-62
2023/03/06 07:43:17;;;;;;;13.88;6.72;;;0.30;99.90;;;;;;5066213;28;20040;-71
2023/03/06 07:45:45;;;;;;;9.52;6.25;;;2.00;99.90;;;;;;5074411;28;20047;-69
2023/03/06 07:48:12;;;;;;;11.10;6.30;;;1.40;99.90;;;;;;5070608;28;20057;-63
2023/03/06 07:50:37;;;;;;;13.10;5.97;;;1.70;99.90;;;;;;5065640;28;20045;-67
2023/03/06 07:53:03;;;;;;;12.13;5.10;;;0.50;99.90;;;;;;5067141;28;20479;-64
2023/03/06 07:55:29;;;;;;;10.95;5.47;;;1.40;99.90;;;;;;5066909;28;20141;-72
2023/03/06 07:57:54;;;;;;;11.93;5.28;;;1.70;99.90;;;;;;5032804;28;20044;-69
2023/03/06 08:00:20;;;;;;;10.57;4.78;;;1.00;99.90;;;;;;5066650;28;20121;-66
2023/03/06 08:02:47;;;;;;;8.77;4.88;;;1.40;99.90;;;;;;5066698;28;20051;-72
2023/03/06 08:05:15;;;;;;;8.38;4.45;;;2.10;99.90;;;;;;5066046;28;20506;-69
2023/03/06 08:07:42;;;;;;;6.88;4.05;;;1.40;99.90;;;;;;5066249;28;20115;-70
2023/03/06 08:10:08;;;;;;;6.85;3.70;;;0.80;99.90;;;;;;5048946;28;20072;-65
2023/03/06 08:12:34;;;;;;;6.88;3.90;;;1.40;99.90;;;;;;5066412;28;20120;-70
2023/03/06 08:15:00;;;;;;;7.18;4.15;;;2.00;99.90;;;;;;5065836;28;20551;-63
2023/03/06 08:17:25;;;;;;;7.95;3.63;;;0.40;99.90;;;;;;5065831;28;20086;-69
2023/03/06 08:19:51;;;;;;;5.25;3.08;;;2.70;99.90;;;;;;5065336;28;20038;-71
2023/03/06 08:22:16;;;;;;;6.90;3.97;;;0.70;99.90;;;;;;5066257;28;20044;-63
2023/03/06 08:24:42;;;;;;;9.45;3.42;;;1.60;99.90;;;;;;5065788;28;20048;-70
2023/03/06 08:27:08;;;;;;;5.45;3.40;;;0.70;99.90;;;;;;5048667;28;20060;-70
2023/03/06 08:29:33;;;;;;;7.75;3.70;;;0.70;99.90;;;;;;5066466;28;20039;-66
2023/03/06 08:31:59;;;;;;;5.95;3.70;;;1.30;99.90;;;;;;5065692;28;20511;-69
2023/03/06 08:34:25;;;;;;;6.63;3.72;;;1.30;99.90;;;;;;5065115;28;20045;-71
2023/03/06 08:36:51;;;;;;;8.05;3.35;;;1.60;99.90;;;;;;5066356;28;20127;-69
2023/03/06 08:39:16;;;;;;;5.57;3.60;;;3.00;99.90;;;;;;5065759;28;20044;-72
2023/03/06 08:41:42;;;;;;;6.07;3.83;;;1.10;99.90;;;;;;5065323;28;20071;-65
2023/03/06 08:44:09;;;;;;;6.30;3.60;;;1.40;99.90;;;;;;5048170;28;20144;-72
2023/03/06 08:46:35;;;;;;;6.13;3.00;;;2.20;99.90;;;;;;5074360;28;20042;-70
2023/03/06 08:49:01;;;;;;;8.20;4.03;;;1.50;99.90;;;;;;5085214;28;20082;-62
2023/03/06 08:51:27;;;;;;;10.80;3.80;;;2.30;99.90;;;;;;5085610;28;20051;-72
2023/03/06 08:53:54;;;;;;;5.57;3.70;;;1.50;99.90;;;;;;5085507;28;20131;-73
2023/03/06 08:56:25;;;;;;;7.50;3.30;;;2.00;99.90;;;;;;5085203;28;20439;-72
2023/03/06 08:58:52;;;;;;;6.53;3.90;;;2.10;99.90;;;;;;5084635;28;20127;-69
2023/03/06 09:01:21;;;;;;;8.25;3.72;;;3.00;99.90;;;;;;5085771;28;20490;-68
2023/03/06 09:03:47;;;;;;;7.20;3.60;;;2.70;99.90;;;;;;5067269;28;20099;-73
2023/03/06 09:06:13;;;;;;;5.65;3.50;;;2.80;99.90;;;;;;5067174;28;20039;-69
2023/03/06 09:08:41;;;;;;;7.78;3.28;;;3.00;99.90;;;;;;5084948;28;20040;-75
2023/03/06 09:11:13;;;;;;;5.80;2.58;;;2.60;99.90;;;;;;5085407;28;20127;-68
2023/03/06 09:13:39;;;;;;;9.32;3.45;;;3.10;99.90;;;;;;5066324;28;20043;-67
2023/03/06 09:16:05;;;;;;;9.18;3.10;;;2.30;99.90;;;;;;5085757;28;20044;-64
2023/03/06 09:18:31;;;;;;;4.72;2.95;;;3.30;99.90;;;;;;5084595;28;20078;-65
2023/03/06 09:20:57;;;;;;;5.60;3.17;;;2.40;99.90;;;;;;5085457;28;20041;-64
2023/03/06 09:23:22;;;;;;;6.50;3.55;;;3.60;99.90;;;;;;5063463;28;20140;-64
2023/03/06 09:25:56;;;;;;;5.95;2.90;;;2.80;99.90;;;;;;5065128;28;20087;-64
2023/03/06 09:28:22;;;;;;;5.57;2.28;;;3.70;99.90;;;;;;5064062;28;20055;-69
2023/03/06 09:30:48;;;;;;;4.07;2.00;;;4.60;99.90;;;;;;5064781;28;20624;-70
2023/03/06 09:33:15;;;;;;;4.32;1.92;;;5.00;99.90;;;;;;5065615;28;20058;-70
2023/03/06 09:35:53;;;;;;;5.57;1.60;;;5.00;99.90;;;;;;5062952;28;20067;-63
2023/03/06 09:38:20;;;;;;;4.88;1.73;;;5.10;99.90;;;;;;5063904;28;20047;-67
2023/03/06 09:41:01;;;;;;;3.28;1.20;;;5.90;99.90;;;;;;5063627;28;20044;-66
2023/03/06 09:43:37;;;;;;;3.60;1.60;;;4.80;99.90;;;;;;5063118;28;20049;-70
2023/03/06 09:46:27;;;;;;;4.18;1.63;;;5.50;99.90;;;;;;5057756;28;20128;-69
2023/03/06 09:49:28;;;;;;;4.03;1.40;;;5.60;99.90;;;;;;5041535;28;20045;-65
2023/03/06 09:51:59;;;;;;;5.10;1.33;;;5.50;99.90;;;;;;5039241;28;20098;-70
2023/03/06 09:54:41;;;;;;;3.60;1.20;;;6.20;99.90;;;;;;5044102;28;20043;-65
2023/03/06 09:57:22;;;;;;;5.07;1.30;;;6.40;99.90;;;;;;5043545;28;20049;-62
2023/03/06 09:59:55;;;;;;;7.50;1.20;;;6.20;99.90;;;;;;5044573;28;20048;-65
2023/03/06 10:02:35;;;;;;;4.43;1.35;;;6.20;99.90;;;;;;5043933;28;20041;-65
2023/03/06 10:05:05;;;;;;;3.35;1.20;;;6.20;99.90;;;;;;5041897;28;20045;-68
2023/03/06 10:07:53;;;;;;;3.53;1.23;;;6.00;99.90;;;;;;5043624;28;20087;-68
2023/03/06 10:10:41;;;;;;;3.38;1.05;;;5.80;99.90;;;;;;5043694;28;20053;-68
2023/03/06 10:13:24;;;;;;;2.38;0.75;;;5.60;99.90;;;;;;5043026;28;20065;-67
2023/03/06 10:15:57;;;;;;;3.72;1.10;;;5.50;99.90;;;;;;5044190;28;20072;-64
2023/03/06 10:18:23;;;;;;;5.55;1.10;;;4.90;99.90;;;;;;5042187;28;20212;-65
2023/03/06 10:20:58;;;;;;;2.58;0.90;;;5.00;99.90;;;;;;5043904;28;20153;-69
2023/03/06 10:23:50;;;;;;;4.20;1.08;;;4.90;99.90;;;;;;5042343;28;20057;-64
2023/03/06 10:26:31;;;;;;;4.93;1.20;;;5.00;99.90;;;;;;5044421;28;20051;-64
2023/03/06 10:29:02;;;;;;;3.78;0.93;;;4.90;99.90;;;;;;5043616;28;20044;-65
2023/03/06 10:31:28;;;;;;;2.83;1.10;;;4.80;99.90;;;;;;5043955;28;20084;-67
2023/03/06 10:34:04;;;;;;;3.05;0.98;;;4.80;99.90;;;;;;5042166;28;20107;-67
2023/03/06 10:36:30;;;;;;;2.80;1.13;;;4.90;99.90;;;;;;5043141;28;20081;-64
2023/03/06 10:38:58;;;;;;;6.72;2.17;;;4.70;99.90;;;;;;5049868;28;20079;-64
2023/03/06 10:41:29;;;;;;;5.28;1.30;;;5.00;99.90;;;;;;5064075;28;20044;-65
2023/03/06 10:43:58;;;;;;;3.33;0.90;;;5.10;99.90;;;;;;5062254;28;20142;-65
2023/03/06 10:46:29;;;;;;;4.63;1.20;;;5.20;99.90;;;;;;5033476;28;20131;-69
2023/03/06 10:49:01;;;;;;;4.88;1.00;;;5.30;99.90;;;;;;5065123;28;20474;-63
2023/03/06 10:51:28;;;;;;;3.75;0.90;;;5.50;99.90;;;;;;5070331;28;20061;-69
2023/03/06 10:53:55;;;;;;;3.55;0.90;;;5.70;99.90;;;;;;5069039;28;20059;-70
2023/03/06 10:56:31;;;;;;;2.10;0.70;;;5.80;99.90;;;;;;5069714;28;20713;-70
2023/03/06 10:59:17;;;;;;;5.70;0.70;;;6.40;99.90;;;;;;5058945;28;20096;-63
2023/03/06 11:01:54;;;;;;;5.50;1.17;;;6.60;99.90;;;;;;5067787;28;20060;-70
2023/03/06 11:04:29;;;;;;;5.82;1.83;;;6.90;99.90;;;;;;5080890;28;20069;-65
2023/03/06 11:07:11;;;;;;;2.70;0.57;;;6.90;99.90;;;;;;5082001;28;20056;-62
2023/03/06 11:09:37;;;;;;;2.70;0.57;;;7.20;99.90;;;;;;5082029;28;20044;-69
2023/03/06 11:12:27;;;;;;;3.35;0.70;;;7.70;99.90;;;;;;5063307;28;20137;-68
2023/03/06 11:15:08;;;;;;;5.20;0.68;;;7.70;99.90;;;;;;5081330;28;20044;-64
2023/03/06 11:17:46;;;;;;;3.10;0.80;;;7.40;99.90;;;;;;5081471;28;20460;-63
2023/03/06 11:20:20;;;;;;;3.53;0.60;;;7.50;99.90;;;;;;5079512;28;20052;-61
2023/03/06 11:23:08;;;;;;;3.30;0.77;;;7.90;99.90;;;;;;5063964;28;20059;-66
2023/03/06 11:25:47;;;;;;;1.55;0.60;;;8.10;99.90;;;;;;5081138;28;20490;-61
2023/03/06 11:28:27;;;;;;;3.15;0.60;;;7.90;99.90;;;;;;5081755;28;20717;-68
2023/03/06 11:31:14;;;;;;;2.35;0.60;;;7.90;99.90;;;;;;5080714;28;20048;-61
2023/03/06 11:33:49;;;;;;;3.85;0.80;;;8.40;99.90;;;;;;5041013;28;20064;-68
2023/03/06 11:36:17;;;;;;;;;;;8.30;99.90;;;;;;5053625;28;20059;-65
2023/03/06 11:38:51;;;;;;;3.10;0.63;;;8.00;99.90;;;;;;5061312;28;19924;-68
2023/03/06 11:41:38;;;;;;;3.58;0.60;;;7.50;99.90;;;;;;5061288;28;20054;-70
2023/03/06 11:44:36;;;;;;;2.47;0.70;;;7.00;99.90;;;;;;5059816;28;20052;-65
2023/03/06 11:47:22;;;;;;;2.80;0.40;;;6.90;99.90;;;;;;5049055;28;20048;-68
2023/03/06 11:50:19;;;;;;;2.53;0.60;;;6.70;99.90;;;;;;5066249;28;20056;-71
2023/03/06 11:53:02;;;;;;;5.47;1.00;;;7.00;99.90;;;;;;5058137;28;20080;-71
2023/03/06 11:55:43;;;;;;;1.33;0.40;;;7.30;99.90;;;;;;5078841;28;20056;-71
2023/03/06 11:58:12;;;;;;;1.10;0.40;;;7.10;99.90;;;;;;5040209;28;20105;-68
2023/03/06 12:00:52;;;;;;;1.55;0.50;;;7.00;99.90;;;;;;5041133;28;20118;-68
2023/03/06 12:03:51;;;;;;;2.85;0.57;;;7.00;99.90;;;;;;5061213;28;20051;-68
2023/03/06 12:06:35;;;;;;;3.40;0.50;;;7.10;99.90;;;;;;5063379;28;20059;-71
2023/03/06 12:09:13;;;;;;;2.67;0.70;;;7.00;99.90;;;;;;5065842;28;20490;-67
2023/03/06 12:11:54;;;;;;;4.38;0.60;;;7.10;99.90;;;;;;5065647;28;20442;-71
2023/03/06 12:14:35;;;;;;;4.43;0.60;;;7.00;99.90;;;;;;5066339;28;20141;-70
2023/03/06 12:17:02;;;;;;;1.75;0.60;;;7.10;99.90;;;;;;5065332;28;20055;-73
2023/03/06 12:19:57;;;;;;;2.17;0.60;;;7.00;99.90;;;;;;5065328;28;20688;-71
2023/03/06 12:22:44;;;;;;;1.95;0.57;;;6.70;99.90;;;;;;5068885;28;20048;-72
2023/03/06 12:25:18;;;;;;;4.55;0.80;;;6.40;99.90;;;;;;5085895;28;20089;-68
2023/03/06 12:28:10;;;;;;;2.92;0.70;;;6.40;99.90;;;;;;5086080;28;20113;-72
2023/03/06 12:30:44;;;;;;;3.67;0.60;;;6.40;99.90;;;;;;5084703;28;20052;-67
2023/03/06 12:33:10;;;;;;;4.45;0.75;;;6.30;99.90;;;;;;5084998;28;20055;-69
2023/03/06 12:35:38;;;;;;;3.03;0.60;;;6.30;99.90;;;;;;5085974;28;20467;-67
2023/03/06 12:38:28;;;;;;;4.22;0.82;;;6.40;99.90;;;;;;5085859;28;20047;-68
2023/03/06 12:41:25;;;;;;;3.50;0.70;;;6.20;99.90;;;;;;5085735;28;20079;-72
2023/03/06 12:44:18;;;;;;;5.10;0.98;;;6.20;99.90;;;;;;5080938;28;20147;-62
2023/03/06 12:47:00;;;;;;;1.95;0.70;;;6.20;99.90;;;;;;5057987;28;20411;-70
2023/03/06 12:49:29;;;;;;;2.38;0.60;;;6.20;99.90;;;;;;5046793;28;20052;-67
2023/03/06 12:51:56;;;;;;;2.22;0.70;;;6.20;99.90;;;;;;5065614;28;20162;-61
2023/03/06 12:54:26;;;;;;;2.67;0.60;;;6.30;99.90;;;;;;5065237;28;20046;-62
2023/03/06 12:56:53;;;;;;;3.90;0.70;;;6.40;99.90;;;;;;5065250;28;20426;-67
2023/03/06 12:59:38;;;;;;;2.45;0.40;;;6.50;99.90;;;;;;5065300;28;20048;-69
2023/03/06 13:02:25;;;;;;;2.25;0.45;;;6.50;99.90;;;;;;5046796;28;20051;-68
2023/03/06 13:04:51;;;;;;;2.63;0.57;;;6.40;99.90;;;;;;5063992;28;20044;-68
2023/03/06 13:07:32;;;;;;;2.13;0.57;;;6.40;99.90;;;;;;5064747;28;20044;-68